Terminal Aerodrome Forecast
Issued by NWS Sterling, VA

Current Version | Previous Version | Text Only | Print | Product List | Glossary Off
Versions: 1 2 3 4 5 6 7 8 9 10 11 12 13 14 15 16 17 18 19 20 21 22 23 24

878
FTUS41 KLWX 311130
TAFDCA
TAF
KDCA 311130Z 3112/0112 VRB03KT P6SM FEW050
     FM311600 18005KT P6SM SCT050
     FM312200 17006KT P6SM VCTS BKN050CB
     FM010300 35004KT P6SM VCSH OVC050=

USA.gov is the U.S. government's official web portal to all federal, state and local government web resources and services.